createdAt,value
2022-12-11T12:49:52.243Z,3.0
2022-12-11T13:05:58.811Z,27.8
2022-12-11T13:11:45.285Z,27.5
2022-12-11T13:20:10.874Z,31.0
2022-12-11T13:25:02.201Z,29.2
2022-12-11T13:30:05.769Z,29.2
2022-12-11T13:35:00.672Z,29.3
2022-12-11T13:40:04.512Z,29.4
2022-12-11T13:45:01.331Z,28.9
2022-12-11T13:50:00.705Z,28.5
2022-12-11T13:55:01.411Z,28.1
2022-12-11T14:00:01.135Z,26.9
2022-12-11T14:05:03.406Z,35.0
2022-12-11T14:10:04.563Z,33.9
2022-12-11T14:15:02.157Z,33.1
2022-12-11T14:20:03.511Z,32.5
2022-12-11T14:25:15.822Z,32.0
2022-12-11T14:30:09.553Z,31.0
2022-12-11T14:35:03.807Z,30.2
2022-12-11T14:40:00.725Z,29.4
2022-12-11T15:05:18.020Z,28.6
2022-12-11T15:11:05.912Z,26.2
2022-12-11T15:16:13.339Z,27.7
2022-12-11T15:21:04.055Z,28.2
2022-12-11T15:26:01.976Z,29.4
2022-12-11T15:31:04.130Z,29.8
2022-12-11T15:36:04.881Z,30.6
2022-12-11T15:41:20.742Z,30.6
2022-12-11T15:46:04.215Z,30.9
2022-12-11T15:51:01.574Z,30.1
2022-12-11T15:56:01.735Z,30.4
2022-12-11T16:01:01.362Z,30.3
2022-12-11T16:06:01.141Z,29.8
2022-12-11T16:11:01.615Z,29.5
2022-12-11T16:16:01.917Z,34.1
2022-12-11T16:21:01.264Z,34.8
2022-12-11T16:26:01.142Z,35.8
2022-12-11T16:31:01.309Z,36.2
2022-12-11T16:36:01.176Z,37.4
2022-12-11T16:41:07.999Z,32.7
2022-12-11T16:46:01.331Z,32.0
2022-12-11T16:51:01.285Z,32.0
2022-12-11T17:01:01.246Z,31.1
2022-12-11T17:06:04.532Z,32.5
2022-12-11T17:11:01.155Z,34.9
2022-12-11T17:16:01.325Z,36.0
2022-12-11T17:21:01.266Z,40.4
2022-12-11T17:26:01.155Z,37.9
2022-12-11T17:31:03.006Z,37.3
2022-12-11T17:36:01.180Z,34.8
2022-12-11T17:41:01.205Z,34.9
2022-12-11T17:47:10.968Z,30.7
2022-12-11T17:52:01.150Z,34.0
2022-12-11T17:57:06.837Z,32.1
2022-12-11T18:02:08.507Z,32.5
2022-12-11T18:07:07.772Z,33.5
2022-12-11T18:12:01.155Z,36.5
2022-12-11T18:17:01.241Z,38.5
2022-12-11T18:22:01.781Z,39.2
2022-12-11T18:27:01.152Z,39.8
2022-12-11T18:32:01.374Z,37.2
2022-12-11T18:37:01.170Z,34.9
2022-12-11T18:47:07.130Z,34.3
2022-12-11T18:52:01.234Z,33.7
2022-12-11T18:57:01.183Z,34.8
2022-12-11T19:02:02.067Z,34.8
2022-12-11T19:07:01.243Z,34.0
2022-12-11T19:12:01.298Z,34.4
2022-12-11T19:17:01.571Z,34.1
2022-12-11T19:22:01.264Z,33.9
2022-12-11T19:27:01.152Z,33.5
2022-12-11T19:32:07.162Z,33.9
2022-12-11T19:37:01.196Z,32.3
2022-12-11T19:42:01.163Z,31.4
2022-12-11T19:47:01.947Z,30.2
2022-12-11T19:52:01.173Z,31.5
2022-12-11T19:57:01.173Z,31.5
2022-12-11T20:02:01.337Z,31.1
2022-12-11T20:07:01.690Z,31.9
2022-12-11T20:12:01.362Z,33.3
2022-12-11T20:17:14.163Z,30.8
2022-12-11T20:22:01.252Z,30.2
2022-12-11T20:27:01.163Z,30.4
2022-12-11T20:32:07.544Z,30.5
2022-12-11T20:37:11.223Z,29.3
2022-12-11T20:47:01.457Z,26.9
2022-12-11T20:52:01.171Z,28.4
2022-12-11T20:57:01.243Z,28.7
2022-12-11T21:02:01.385Z,29.0
2022-12-11T21:07:01.653Z,30.0
2022-12-11T21:12:01.224Z,33.6
2022-12-11T21:17:06.605Z,32.4
2022-12-11T21:22:01.211Z,30.8
2022-12-11T21:27:01.175Z,30.9
2022-12-11T21:32:01.419Z,30.2
2022-12-11T21:37:01.207Z,29.8
2022-12-11T21:42:01.658Z,30.4
2022-12-11T21:48:01.218Z,32.1
2022-12-11T21:58:01.212Z,31.6
2022-12-11T22:03:01.321Z,32.8
2022-12-11T22:08:03.144Z,32.7
2022-12-11T22:13:01.210Z,30.5
2022-12-11T22:18:01.151Z,29.2
2022-12-11T22:23:01.271Z,29.4
2022-12-11T22:28:01.172Z,28.1
2022-12-11T22:33:01.287Z,27.8
2022-12-11T22:38:01.184Z,28.5
2022-12-11T22:43:07.247Z,30.5
2022-12-11T22:48:01.257Z,30.4
2022-12-11T22:53:01.759Z,30.3
2022-12-11T22:58:01.180Z,30.3
2022-12-11T23:03:01.453Z,30.8
2022-12-11T23:08:01.086Z,40.0
2022-12-11T23:13:00.711Z,35.6
2022-12-11T23:18:00.729Z,34.4
2022-12-11T23:23:00.769Z,32.8
2022-12-11T23:28:18.713Z,32.2
2022-12-11T23:33:00.888Z,27.6
2022-12-11T23:38:00.705Z,28.3
2022-12-11T23:43:00.828Z,27.2
2022-12-11T23:48:00.724Z,27.4
2022-12-11T23:53:00.701Z,26.8
2022-12-11T23:58:00.710Z,28.8
